Time;durP1;ratioP1;P1;durP2;ratioP2;P2;SDS_P1;SDS_P2;PMS_P1;PMS_P2;Temp;Humidity;BMP_temperature;BMP_pressure;BME280_temperature;BME280_humidity;BME280_pressure;Samples;Min_cycle;Max_cycle;Signal;HPM_P1;HPM_P2
2023/05/26 00:01:21;;;;;;;;;;;;;;;26.63;43.77;94691.09;5037097;28;9090;-61
2023/05/26 00:03:58;;;;;;;;;;;;;;;26.63;43.78;94694.63;5041465;28;8951;-61
2023/05/26 00:06:59;;;;;;;;;;;;;;;26.63;44.06;94686.34;5057279;28;7325;-61
2023/05/26 00:09:38;;;;;;;;;;;;;;;26.63;44.13;94691.09;4934481;29;7115;-61
2023/05/26 00:12:39;;;;;;;;;;;;;;;26.64;43.90;94698.13;4930457;29;7040;-61
2023/05/26 00:15:16;;;;;;;;;;;;;;;26.60;43.87;94692.88;4863203;29;9079;-61
2023/05/26 00:17:53;;;;;;;;;;;;;;;26.61;43.67;94693.63;4857172;29;9054;-61
2023/05/26 00:20:20;;;;;;;;;;;;;;;26.60;44.23;94681.84;4884083;29;8918;-61
2023/05/26 00:22:55;;;;;;;;;;;;;;;26.61;43.77;94685.34;4893582;29;7565;-61
2023/05/26 00:25:23;;;;;;;;;;;;;;;26.60;43.86;94676.31;4878222;29;7117;-61
2023/05/26 00:27:53;;;;;;;;;;;;;;;26.61;44.17;94688.09;4876975;29;7298;-61
2023/05/26 00:30:20;;;;;;;;;;;;;;;26.58;44.10;94680.84;4876524;29;7283;-61
2023/05/26 00:32:49;;;;;;;;;;;;;;;26.60;43.94;94683.88;4859182;29;8773;-61
2023/05/26 00:35:17;;;;;;;;;;;;;;;26.58;44.19;94686.34;4871246;29;9391;-61
2023/05/26 00:37:47;;;;;;;;;;;;;;;26.60;44.04;94681.09;4860924;29;8475;-62
2023/05/26 00:40:16;;;;;;;;;;;;;;;26.59;44.02;94685.13;4874182;29;7030;-61
2023/05/26 00:43:11;;;;;;;;;;;;;;;26.58;43.27;94680.84;4859973;29;8680;-61
2023/05/26 00:45:37;;;;;;;;;;;;;;;26.53;44.30;94670.59;4882884;29;7775;-61
2023/05/26 00:48:22;;;;;;;;;;;;;;;26.54;43.69;94667.34;4899460;29;7259;-61
2023/05/26 00:51:06;;;;;;;;;;;;;;;26.55;44.25;94670.84;4932674;28;7129;-62
2023/05/26 00:53:41;;;;;;;;;;;;;;;26.53;44.44;94662.34;4949861;28;9265;-61
2023/05/26 00:56:17;;;;;;;;;;;;;;;26.56;44.13;94672.31;4951855;28;6861;-61
2023/05/26 00:58:53;;;;;;;;;;;;;;;26.56;44.06;94670.31;4917155;29;8441;-61
2023/05/26 01:01:19;;;;;;;;;;;;;;;26.54;44.14;94666.56;4953323;28;9123;-61
2023/05/26 01:03:49;;;;;;;;;;;;;;;26.54;43.84;94666.56;4949897;29;7574;-61
2023/05/26 01:06:16;;;;;;;;;;;;;;;26.53;44.15;94665.09;4961121;28;9156;-61
2023/05/26 01:08:42;;;;;;;;;;;;;;;26.52;44.10;94666.34;4946917;29;7099;-62
2023/05/26 01:11:40;;;;;;;;;;;;;;;26.53;43.84;94671.38;4950852;29;9114;-61
2023/05/26 01:14:29;;;;;;;;;;;;;;;26.52;43.82;94667.09;4880587;29;9077;-61
2023/05/26 01:17:21;;;;;;;;;;;;;;;26.52;43.66;94666.34;4875361;29;7360;-61
2023/05/26 01:20:32;;;;;;;;;;;;;;;26.52;44.36;94664.34;4886879;29;7045;-61
2023/05/26 01:23:33;;;;;;;;;;;;;;;26.52;44.14;94671.84;4940352;29;7150;-61
2023/05/26 01:26:26;;;;;;;;;;;;;;;26.51;44.50;94670.38;4931865;29;7060;-61
2023/05/26 01:29:10;;;;;;;;;;;;;;;26.47;43.82;94667.88;4940207;29;9307;-61
2023/05/26 01:31:39;;;;;;;;;;;;;;;26.47;44.29;94667.13;4937568;29;7020;-61
2023/05/26 01:34:14;;;;;;;;;;;;;;;26.46;44.25;94665.63;4936345;29;7054;-61
2023/05/26 01:37:12;;;;;;;;;;;;;;;26.47;43.89;94667.13;4942080;29;9268;-61
2023/05/26 01:39:56;;;;;;;;;;;;;;;26.49;44.41;94664.63;4929703;29;7218;-61
2023/05/26 01:42:43;;;;;;;;;;;;;;;26.46;44.13;94665.63;4933848;29;7052;-61
2023/05/26 01:45:23;;;;;;;;;;;;;;;26.46;44.51;94662.88;4931540;29;9479;-61
2023/05/26 01:47:57;;;;;;;;;;;;;;;26.45;43.69;94662.09;4920101;29;8740;-61
2023/05/26 01:50:37;;;;;;;;;;;;;;;26.45;44.62;94666.88;4956622;28;7197;-61
2023/05/26 01:53:07;;;;;;;;;;;;;;;26.43;44.17;94663.88;4978315;28;8480;-61
2023/05/26 01:55:38;;;;;;;;;;;;;;;26.47;44.63;94678.91;4992162;28;9298;-61
2023/05/26 01:58:05;;;;;;;;;;;;;;;26.47;44.07;94676.13;4983553;28;9170;-61
2023/05/26 02:00:31;;;;;;;;;;;;;;;26.43;43.98;94672.16;4989150;28;7052;-61
2023/05/26 02:03:13;;;;;;;;;;;;;;;26.45;44.51;94680.66;4994694;28;6973;-61
2023/05/26 02:05:41;;;;;;;;;;;;;;;26.45;44.30;94672.38;4995292;28;9059;-61
2023/05/26 02:08:24;;;;;;;;;;;;;;;26.44;44.35;94676.41;4979059;28;9076;-61
2023/05/26 02:11:05;;;;;;;;;;;;;;;26.44;44.34;94679.19;4979197;28;8973;-62
2023/05/26 02:13:42;;;;;;;;;;;;;;;26.41;44.31;94678.19;4997392;28;7455;-61
2023/05/26 02:16:17;;;;;;;;;;;;;;;26.40;44.00;94675.94;5012630;28;8356;-61
2023/05/26 02:18:59;;;;;;;;;;;;;;;26.39;43.60;94680.69;5071397;28;7040;-61
2023/05/26 02:21:41;;;;;;;;;;;;;;;26.39;44.29;94686.22;5043811;28;6980;-61
2023/05/26 02:24:09;;;;;;;;;;;;;;;26.38;44.02;94676.44;5055456;28;6988;-61
2023/05/26 02:26:35;;;;;;;;;;;;;;;26.38;44.13;94681.22;5039154;28;7028;-61
2023/05/26 02:29:04;;;;;;;;;;;;;;;26.38;44.25;94673.66;5023542;28;7106;-61
2023/05/26 02:31:39;;;;;;;;;;;;;;;26.37;44.09;94676.94;5054709;28;7026;-61
2023/05/26 02:34:06;;;;;;;;;;;;;;;26.36;44.32;94678.22;5055938;28;7312;-61
2023/05/26 02:36:34;;;;;;;;;;;;;;;26.37;43.83;94683.22;5026761;28;7391;-61
2023/05/26 02:39:04;;;;;;;;;;;;;;;26.38;44.34;94681.94;5034929;28;7288;-61
2023/05/26 02:41:30;;;;;;;;;;;;;;;26.38;44.07;94681.94;5051299;28;7099;-61
2023/05/26 02:44:01;;;;;;;;;;;;;;;26.34;44.11;94675.22;5054367;28;7210;-61
2023/05/26 02:46:31;;;;;;;;;;;;;;;26.36;44.21;94681.72;5036919;28;7262;-61
2023/05/26 02:49:00;;;;;;;;;;;;;;;26.37;44.49;94674.19;5037281;28;7059;-61
2023/05/26 02:51:27;;;;;;;;;;;;;;;26.36;44.34;94673.44;5052381;28;7027;-61
2023/05/26 02:53:53;;;;;;;;;;;;;;;26.34;44.33;94678.00;5050810;28;8752;-61
2023/05/26 02:56:24;;;;;;;;;;;;;;;26.31;44.18;94685.25;5037128;28;7177;-61
2023/05/26 02:58:52;;;;;;;;;;;;;;;26.33;43.90;94677.22;5052605;28;7378;-61
2023/05/26 03:01:21;;;;;;;;;;;;;;;26.34;43.88;94684.22;5053210;28;8752;-61
2023/05/26 03:03:56;;;;;;;;;;;;;;;26.35;44.30;94682.22;5042722;28;8597;-61
2023/05/26 03:06:23;;;;;;;;;;;;;;;26.34;44.91;94683.50;5026135;28;9152;-61
2023/05/26 03:08:52;;;;;;;;;;;;;;;26.34;44.72;94686.25;5044075;28;7122;-61
2023/05/26 03:11:25;;;;;;;;;;;;;;;26.33;44.42;94679.22;5027167;28;8941;-61
2023/05/26 03:13:50;;;;;;;;;;;;;;;26.32;44.07;94678.47;5031133;28;7248;-61
2023/05/26 03:16:16;;;;;;;;;;;;;;;26.31;44.03;94677.00;5043609;28;9477;-61
2023/05/26 03:18:45;;;;;;;;;;;;;;;26.32;44.58;94680.50;5052874;28;9360;-60
2023/05/26 03:21:19;;;;;;;;;;;;;;;26.29;44.65;94670.47;5055157;28;8672;-56
2023/05/26 03:23:49;;;;;;;;;;;;;;;26.28;44.34;94669.72;5035585;28;9022;-57
2023/05/26 03:26:20;;;;;;;;;;;;;;;26.28;44.73;94666.22;5048967;28;7118;-57
2023/05/26 03:28:47;;;;;;;;;;;;;;;26.29;44.80;94668.47;5051063;28;8979;-57
2023/05/26 03:31:16;;;;;;;;;;;;;;;26.29;44.36;94664.97;5051581;28;8788;-56
2023/05/26 03:33:49;;;;;;;;;;;;;;;26.29;44.82;94678.75;5038866;28;9087;-56
2023/05/26 03:36:15;;;;;;;;;;;;;;;26.30;44.64;94683.75;5051996;28;9318;-56
2023/05/26 03:38:43;;;;;;;;;;;;;;;26.27;44.56;94671.00;5043576;28;9060;-57
2023/05/26 03:41:18;;;;;;;;;;;;;;;26.25;44.10;94681.03;5050665;28;7000;-57
2023/05/26 03:43:46;;;;;;;;;;;;;;;26.28;44.30;94685.50;5034899;28;9171;-57
2023/05/26 03:46:18;;;;;;;;;;;;;;;26.26;44.08;94679.75;5031286;28;7603;-56
2023/05/26 03:48:49;;;;;;;;;;;;;;;26.25;43.91;94683.78;5036418;28;7403;-57
2023/05/26 03:51:15;;;;;;;;;;;;;;;26.26;44.22;94682.50;5053287;28;7189;-57
2023/05/26 03:53:44;;;;;;;;;;;;;;;26.26;44.80;94683.28;5034819;28;7343;-57
2023/05/26 03:56:10;;;;;;;;;;;;;;;26.27;44.59;94690.31;5048172;28;7241;-56
2023/05/26 03:58:36;;;;;;;;;;;;;;;26.27;43.99;94692.31;5033346;28;7277;-57
2023/05/26 04:01:51;;;;;;;;;;;;;;;26.28;44.51;94691.03;5053331;28;7050;-57
2023/05/26 04:04:34;;;;;;;;;;;;;;;26.24;44.10;94687.78;4955142;28;9111;-57
2023/05/26 04:07:49;;;;;;;;;;;;;;;26.28;44.47;94694.53;4956369;28;9287;-57
2023/05/26 04:10:28;;;;;;;;;;;;;;;26.25;44.03;94698.34;4923944;29;7424;-57
2023/05/26 04:13:22;;;;;;;;;;;;;;;26.26;43.83;94701.81;4916695;29;7184;-57
2023/05/26 04:15:58;;;;;;;;;;;;;;;26.25;44.41;94698.34;4912231;29;8704;-57
2023/05/26 04:18:31;;;;;;;;;;;;;;;26.28;44.23;94693.78;4915078;29;9809;-56
2023/05/26 04:21:17;;;;;;;;;;;;;;;26.24;44.01;94685.78;4892644;29;8648;-57
2023/05/26 04:23:43;;;;;;;;;;;;;;;26.25;44.72;94700.34;4917772;29;7243;-57
2023/05/26 04:26:18;;;;;;;;;;;;;;;26.23;44.22;94700.09;4928835;29;7242;-56
2023/05/26 04:29:01;;;;;;;;;;;;;;;26.23;44.58;94697.34;4919699;29;7225;-57
2023/05/26 04:31:42;;;;;;;;;;;;;;;26.24;44.33;94698.81;4899287;29;7482;-57
2023/05/26 04:34:21;;;;;;;;;;;;;;;26.24;44.18;94701.56;4915683;29;7270;-57
2023/05/26 04:36:49;;;;;;;;;;;;;;;26.23;44.73;94691.81;4915304;29;9577;-57
2023/05/26 04:39:24;;;;;;;;;;;;;;;26.24;44.10;94694.06;4914448;29;9061;-57
2023/05/26 04:42:43;;;;;;;;;;;;;;;26.26;44.67;94704.56;4967375;28;7036;-56
2023/05/26 04:45:42;;;;;;;;;;;;;;;26.25;44.39;94705.84;4885039;29;7446;-56
2023/05/26 04:48:20;;;;;;;;;;;;;;;26.26;44.07;94702.56;4952918;28;9124;-57
2023/05/26 04:51:28;;;;;;;;;;;;;;;26.26;43.96;94712.84;4952968;28;7125;-57
2023/05/26 04:53:55;;;;;;;;;;;;;;;26.27;43.90;94714.38;4956656;28;7079;-57
2023/05/26 04:56:21;;;;;;;;;;;;;;;26.25;44.12;94711.38;4956149;28;8469;-57
2023/05/26 04:58:50;;;;;;;;;;;;;;;26.26;44.25;94712.84;4949491;28;7252;-57
2023/05/26 05:01:35;;;;;;;;;;;;;;;26.26;44.63;94708.09;4955732;28;8941;-57
2023/05/26 05:04:10;;;;;;;;;;;;;;;26.26;44.34;94715.59;4956954;28;9083;-56
2023/05/26 05:06:45;;;;;;;;;;;;;;;26.24;44.36;94712.59;4954616;28;7346;-57
2023/05/26 05:09:27;;;;;;;;;;;;;;;26.23;44.71;94711.84;4950057;28;7034;-56
2023/05/26 05:12:06;;;;;;;;;;;;;;;26.25;44.48;94714.13;4972704;28;8717;-57
2023/05/26 05:15:04;;;;;;;;;;;;;;;26.26;44.47;94719.13;4970882;28;7283;-57
2023/05/26 05:17:40;;;;;;;;;;;;;;;26.25;44.63;94722.41;4952222;28;7345;-56
2023/05/26 05:20:46;;;;;;;;;;;;;;;26.25;44.48;94725.91;4974219;28;7040;-57
2023/05/26 05:23:18;;;;;;;;;;;;;;;26.26;43.98;94723.88;5056759;28;7052;-62
2023/05/26 05:26:02;;;;;;;;;;;;;;;26.27;43.86;94725.38;5049000;28;7270;-62
2023/05/26 05:28:42;;;;;;;;;;;;;;;26.25;44.77;94719.63;5041600;28;8802;-62
2023/05/26 05:31:12;;;;;;;;;;;;;;;26.26;44.31;94727.38;5041658;28;7056;-62
2023/05/26 05:33:43;;;;;;;;;;;;;;;26.28;43.76;94726.88;5041956;28;9095;-62
2023/05/26 05:36:18;;;;;;;;;;;;;;;26.24;44.16;94724.38;5044283;28;7123;-62
2023/05/26 05:39:03;;;;;;;;;;;;;;;26.28;44.70;94721.34;5050366;28;7373;-62
2023/05/26 05:41:54;;;;;;;;;;;;;;;26.28;44.28;94730.38;5048981;28;7561;-63
2023/05/26 05:44:58;;;;;;;;;;;;;;;26.27;44.90;94734.41;5078315;28;7050;-63
2023/05/26 05:47:33;;;;;;;;;;;;;;;26.26;44.43;94738.41;4998299;28;7278;-61
2023/05/26 05:50:18;;;;;;;;;;;;;;;26.27;44.00;94739.19;4995878;28;7279;-62
2023/05/26 05:52:59;;;;;;;;;;;;;;;26.28;44.26;94744.19;4993754;28;7278;-61
2023/05/26 05:55:51;;;;;;;;;;;;;;;26.28;44.48;94746.19;5022535;28;9529;-62
2023/05/26 05:58:16;;;;;;;;;;;;;;;26.24;44.26;94751.97;4993155;28;8781;-62
2023/05/26 06:01:19;;;;;;;;;;;;;;;26.23;44.24;94744.22;5022527;28;9117;-61
2023/05/26 06:04:32;;;;;;;;;;;;;;;26.23;44.44;94752.47;4934015;29;7426;-62
2023/05/26 06:07:10;;;;;;;;;;;;;;;26.26;44.71;94740.41;4930359;29;7052;-62
2023/05/26 06:10:12;;;;;;;;;;;;;;;26.24;44.77;94743.69;4917321;29;7088;-62
2023/05/26 06:13:17;;;;;;;;;;;;;;;26.26;44.78;94749.44;4895997;29;7451;-61
2023/05/26 06:15:51;;;;;;;;;;;;;;;26.28;44.54;94748.94;4878915;29;9207;-61
2023/05/26 06:18:26;;;;;;;;;;;;;;;26.27;44.47;94758.47;4891711;29;7226;-62
2023/05/26 06:20:53;;;;;;;;;;;;;;;26.26;44.99;94754.97;4905257;29;9545;-62
2023/05/26 06:23:40;;;;;;;;;;;;;;;26.29;45.46;94753.97;4910395;29;7282;-62
2023/05/26 06:26:21;;;;;;;;;;;;;;;26.28;46.81;94759.97;4908607;29;9553;-63
2023/05/26 06:28:50;;;;;;;;;;;;;;;26.32;45.09;94766.72;4917694;29;7065;-63
2023/05/26 06:31:32;;;;;;;;;;;;;;;26.33;45.75;94764.72;4928991;29;7060;-64
2023/05/26 06:33:58;;;;;;;;;;;;;;;26.28;46.04;94771.00;4930424;29;7750;-63
2023/05/26 06:36:54;;;;;;;;;;;;;;;26.29;45.63;94767.00;4926418;29;7114;-63
2023/05/26 06:39:30;;;;;;;;;;;;;;;26.32;45.82;94771.50;4947829;28;7317;-63
2023/05/26 06:42:17;;;;;;;;;;;;;;;26.34;44.98;94780.03;4959219;28;7038;-63
2023/05/26 06:44:56;;;;;;;;;;;;;;;26.31;45.47;94770.00;4946482;28;9040;-63
2023/05/26 06:47:23;;;;;;;;;;;;;;;26.35;45.32;94776.00;5034003;28;7291;-64
2023/05/26 06:49:58;;;;;;;;;;;;;;;26.34;45.05;94769.72;5061519;28;9034;-62
2023/05/26 06:52:44;;;;;;;;;;;;;;;26.36;45.42;94783.03;5048811;28;7062;-63
2023/05/26 06:55:23;;;;;;;;;;;;;;;26.34;45.07;94778.00;5065615;28;8985;-63
2023/05/26 06:58:11;;;;;;;;;;;;;;;26.32;45.05;94777.75;5046312;28;7240;-63
2023/05/26 07:00:38;;;;;;;;;;;;;;;26.32;45.50;94786.03;5049952;28;9355;-63
2023/05/26 07:03:06;;;;;;;;;;;;;;;26.30;45.47;94788.53;5045475;28;7261;-63
2023/05/26 07:05:59;;;;;;;;;;;;;;;26.30;45.74;94787.78;5048565;28;8779;-62
2023/05/26 07:08:29;;;;;;;;;;;;;;;26.29;45.22;94783.53;5058534;28;7034;-62
2023/05/26 07:11:01;;;;;;;;;;;;;;;26.29;45.88;94784.28;5028369;28;6995;-62
2023/05/26 07:14:03;;;;;;;;;;;;;;;26.32;45.70;94779.78;5028029;28;7230;-63
2023/05/26 07:16:48;;;;;;;;;;;;;;;26.34;45.21;94777.25;4972845;28;7313;-62
2023/05/26 07:19:16;;;;;;;;;;;;;;;26.35;45.59;94776.75;4989230;28;7377;-62
2023/05/26 07:22:28;;;;;;;;;;;;;;;26.36;45.68;94785.78;4973324;28;9058;-62
2023/05/26 07:25:10;;;;;;;;;;;;;;;26.38;45.66;94786.03;4928168;29;9962;-62
2023/05/26 07:27:44;;;;;;;;;;;;;;;26.39;45.31;94782.00;4916086;29;9656;-62
2023/05/26 07:30:13;;;;;;;;;;;;;;;26.37;45.21;94790.78;4918175;29;8704;-62
2023/05/26 07:33:00;;;;;;;;;;;;;;;26.33;45.98;94787.53;4922457;29;7256;-63
2023/05/26 07:35:35;;;;;;;;;;;;;;;26.32;45.07;94788.78;4919689;29;8778;-64
2023/05/26 07:38:18;;;;;;;;;;;;;;;26.32;45.16;94788.78;4908909;29;8991;-63
2023/05/26 07:40:48;;;;;;;;;;;;;;;26.33;45.19;94792.28;4928163;28;7249;-63
2023/05/26 07:43:18;;;;;;;;;;;;;;;26.34;45.37;94797.28;4925130;29;7050;-63
2023/05/26 07:45:49;;;;;;;;;;;;;;;26.34;45.09;94788.28;4931971;29;7331;-63
2023/05/26 07:48:34;;;;;;;;;;;;;;;26.32;45.06;94782.53;4911632;29;7246;-63
2023/05/26 07:51:03;;;;;;;;;;;;;;;26.34;45.16;94797.28;4917587;28;9042;-63
2023/05/26 07:53:29;;;;;;;;;;;;;;;26.32;44.79;94790.81;4979887;28;7305;-64
2023/05/26 07:56:06;;;;;;;;;;;;;;;26.36;45.37;94789.25;4980300;28;9803;-64
2023/05/26 07:58:32;;;;;;;;;;;;;;;26.40;45.86;94800.06;4980335;28;9009;-63
2023/05/26 08:00:58;;;;;;;;;;;;;;;26.39;46.01;94787.50;5004038;28;7024;-63
2023/05/26 08:03:24;;;;;;;;;;;;;;;26.39;45.90;94788.25;5042551;28;7266;-64
2023/05/26 08:05:50;;;;;;;;;;;;;;;26.37;45.56;94787.25;5059413;28;9236;-64
2023/05/26 08:08:16;;;;;;;;;;;;;;;26.43;44.94;94790.75;5044897;28;7250;-63
2023/05/26 08:10:42;;;;;;;;;;;;;;;26.39;45.67;94785.50;5043912;28;7379;-64
2023/05/26 08:13:12;;;;;;;;;;;;;;;26.39;45.92;94782.75;5039843;28;9101;-64
2023/05/26 08:15:42;;;;;;;;;;;;;;;26.40;44.88;94789.03;5038823;28;7010;-64
2023/05/26 08:18:10;;;;;;;;;;;;;;;26.41;45.17;94787.75;5053142;28;7247;-64
2023/05/26 08:20:39;;;;;;;;;;;;;;;26.42;45.54;94789.25;5062778;28;7456;-64
2023/05/26 08:23:07;;;;;;;;;;;;;;;26.40;45.14;94791.78;5044209;28;7303;-64
2023/05/26 08:25:47;;;;;;;;;;;;;;;26.42;44.98;94787.25;5073114;28;7299;-64
2023/05/26 08:28:26;;;;;;;;;;;;;;;26.42;45.49;94792.78;5043853;28;9030;-63
2023/05/26 08:30:52;;;;;;;;;;;;;;;26.40;45.27;94794.53;5053400;28;7354;-64
2023/05/26 08:33:20;;;;;;;;;;;;;;;26.41;44.81;94791.25;5046162;28;7070;-64
2023/05/26 08:35:53;;;;;;;;;;;;;;;26.41;45.18;94790.50;5048463;28;9551;-64
2023/05/26 08:38:19;;;;;;;;;;;;;;;26.42;45.41;94798.28;5040748;28;9040;-63
2023/05/26 08:41:17;;;;;;;;;;;;;;;26.45;45.66;94785.47;5045194;28;7088;-64
2023/05/26 08:44:03;;;;;;;;;;;;;;;26.44;45.42;94789.50;4969528;28;7868;-64
2023/05/26 08:46:31;;;;;;;;;;;;;;;26.45;44.99;94791.75;4969082;28;9416;-62
2023/05/26 08:48:58;;;;;;;;;;;;;;;26.46;44.88;94795.25;4952046;28;7038;-62
2023/05/26 08:52:00;;;;;;;;;;;;;;;26.48;44.86;94790.00;4958753;28;7268;-63
2023/05/26 08:54:37;;;;;;;;;;;;;;;26.50;44.57;94798.50;4871717;29;8924;-63
2023/05/26 08:57:16;;;;;;;;;;;;;;;26.50;44.46;94788.22;4873683;29;7265;-62
2023/05/26 08:59:45;;;;;;;;;;;;;;;26.49;45.57;94795.00;4871394;29;8490;-64
2023/05/26 09:02:12;;;;;;;;;;;;;;;26.50;45.49;94795.75;4884760;29;9157;-64
2023/05/26 09:04:40;;;;;;;;;;;;;;;26.52;45.46;94793.22;4839313;29;8429;-64
2023/05/26 09:07:14;;;;;;;;;;;;;;;26.52;44.68;94790.47;4874098;29;7216;-63
2023/05/26 09:09:42;;;;;;;;;;;;;;;26.54;45.25;94793.47;4890288;29;7312;-63
2023/05/26 09:12:59;;;;;;;;;;;;;;;26.55;45.06;94795.75;4857613;29;9128;-63
2023/05/26 09:15:52;;;;;;;;;;;;;;;26.51;45.28;94794.50;4765325;30;7298;-64
2023/05/26 09:18:19;;;;;;;;;;;;;;;26.50;45.27;94787.47;4752051;30;7243;-64
2023/05/26 09:20:58;;;;;;;;;;;;;;;26.50;45.53;94795.75;4824986;29;7414;-63
2023/05/26 09:23:36;;;;;;;;;;;;;;;26.49;45.55;94794.25;4836166;29;7318;-63
2023/05/26 09:26:15;;;;;;;;;;;;;;;26.47;44.89;94792.00;4837369;29;9110;-62
2023/05/26 09:28:59;;;;;;;;;;;;;;;26.51;45.09;94791.75;4847481;29;7300;-62
2023/05/26 09:31:52;;;;;;;;;;;;;;;26.52;44.85;94796.75;4941487;29;9271;-63
2023/05/26 09:34:32;;;;;;;;;;;;;;;26.55;45.02;94797.75;4937003;29;7002;-63
2023/05/26 09:36:59;;;;;;;;;;;;;;;26.54;44.68;94799.75;4932735;29;7248;-62
2023/05/26 09:39:37;;;;;;;;;;;;;;;26.54;44.72;94794.22;4952933;28;8071;-62
2023/05/26 09:42:47;;;;;;;;;;;;;;;26.60;45.15;94802.50;4949160;29;7178;-62
2023/05/26 09:45:45;;;;;;;;;;;;;;;26.59;45.36;94795.47;4942219;29;8795;-62
2023/05/26 09:48:37;;;;;;;;;;;;;;;26.59;45.06;94798.22;4925076;29;7244;-63
2023/05/26 09:51:19;;;;;;;;;;;;;;;26.60;45.29;94794.22;4950561;28;9314;-63
2023/05/26 09:53:47;;;;;;;;;;;;;;;26.58;45.22;94785.69;4975849;28;7209;-62
2023/05/26 09:56:18;;;;;;;;;;;;;;;26.62;44.82;94794.47;4964741;28;9018;-63
2023/05/26 09:58:46;;;;;;;;;;;;;;;26.62;45.18;94795.19;4962220;28;7345;-62
2023/05/26 10:01:14;;;;;;;;;;;;;;;26.65;45.24;94790.66;4963156;28;7325;-63
2023/05/26 10:04:15;;;;;;;;;;;;;;;26.65;45.10;94796.94;4972843;28;7222;-63
2023/05/26 10:06:56;;;;;;;;;;;;;;;26.67;44.98;94793.66;4968440;28;8281;-62
2023/05/26 10:09:36;;;;;;;;;;;;;;;26.69;44.80;94793.91;4970430;28;7039;-63
2023/05/26 10:12:18;;;;;;;;;;;;;;;26.69;45.17;94791.91;4972170;28;7270;-63
2023/05/26 10:14:56;;;;;;;;;;;;;;;26.71;45.04;94788.63;4981495;28;8760;-62
2023/05/26 10:17:25;;;;;;;;;;;;;;;26.69;44.98;94789.16;4965109;28;8019;-63
2023/05/26 10:20:03;;;;;;;;;;;;;;;26.74;45.52;94795.94;4976696;28;8236;-62
2023/05/26 10:26:12;;;;;;;;;;;;;;;26.73;45.26;94777.88;4990847;28;7050;-62
2023/05/26 10:28:59;;;;;;;;;;;;;;;26.74;45.76;94795.94;4973754;28;9065;-64
2023/05/26 10:31:58;;;;;;;;;;;;;;;26.76;45.36;94774.09;4986172;28;8523;-64
2023/05/26 10:34:44;;;;;;;;;;;;;;;26.75;45.56;94780.88;4961632;28;7284;-64
2023/05/26 10:37:17;;;;;;;;;;;;;;;26.78;45.34;94779.84;4963921;28;7309;-64
2023/05/26 10:39:44;;;;;;;;;;;;;;;26.78;45.53;94779.84;4965903;28;9205;-63
2023/05/26 10:42:50;;;;;;;;;;;;;;;26.78;45.15;94777.09;4945541;28;7339;-63
2023/05/26 10:45:23;;;;;;;;;;;;;;;26.79;45.40;94776.59;4959533;28;7448;-63
2023/05/26 10:48:42;;;;;;;;;;;;;;;26.81;44.93;94773.31;4942391;28;7267;-63
2023/05/26 10:51:50;;;;;;;;;;;;;;;26.83;45.14;94768.03;4952119;28;7238;-63
2023/05/26 10:54:21;;;;;;;;;;;;;;;26.83;45.07;94768.03;4962696;28;9024;-64
2023/05/26 10:56:59;;;;;;;;;;;;;;;26.82;45.08;94755.50;4954718;28;9394;-63
2023/05/26 11:00:19;;;;;;;;;;;;;;;26.84;44.80;94755.72;4945932;28;7105;-63
2023/05/26 11:02:53;;;;;;;;;;;;;;;26.84;45.06;94750.97;4872588;29;8786;-63
2023/05/26 11:06:03;;;;;;;;;;;;;;;26.86;45.09;94762.25;4894698;29;7161;-63
2023/05/26 11:09:01;;;;;;;;;;;;;;;26.88;44.92;94768.00;4908377;29;7256;-64
2023/05/26 11:11:29;;;;;;;;;;;;;;;26.89;44.82;94752.94;4917076;29;7271;-62
2023/05/26 11:14:38;;;;;;;;;;;;;;;26.89;44.98;94752.19;4908124;29;6865;-62
2023/05/26 11:17:07;;;;;;;;;;;;;;;26.85;45.11;94757.25;4910882;29;7501;-63
2023/05/26 11:19:58;;;;;;;;;;;;;;;26.88;44.73;94753.47;4928975;29;9172;-63
2023/05/26 11:22:26;;;;;;;;;;;;;;;26.89;44.86;94752.19;4911937;29;8945;-63
2023/05/26 11:25:38;;;;;;;;;;;;;;;26.88;44.68;94751.44;4927492;29;7297;-62
2023/05/26 11:28:07;;;;;;;;;;;;;;;26.89;44.85;94747.44;4892841;29;8613;-63
2023/05/26 11:30:43;;;;;;;;;;;;;;;26.90;44.71;94739.91;4844253;29;7183;-62
2023/05/26 11:33:12;;;;;;;;;;;;;;;26.89;44.72;94738.41;4911210;29;9681;-62
2023/05/26 11:35:39;;;;;;;;;;;;;;;26.92;44.87;94734.63;4932941;29;7496;-62
2023/05/26 11:38:09;;;;;;;;;;;;;;;26.96;44.72;94739.88;4930935;29;7042;-63
2023/05/26 11:40:46;;;;;;;;;;;;;;;26.98;44.55;94738.09;4929510;29;7258;-64
2023/05/26 11:43:23;;;;;;;;;;;;;;;26.98;44.62;94727.06;4930562;29;8174;-63
2023/05/26 11:45:59;;;;;;;;;;;;;;;26.99;44.42;94728.53;4931018;29;6962;-64
2023/05/26 11:48:43;;;;;;;;;;;;;;;27.03;44.66;94733.78;4954255;28;9757;-63
2023/05/26 11:51:20;;;;;;;;;;;;;;;27.02;44.14;94722.00;4952864;28;9351;-63
2023/05/26 11:54:17;;;;;;;;;;;;;;;27.06;44.35;94725.22;4951570;28;7036;-64
2023/05/26 11:57:00;;;;;;;;;;;;;;;27.07;44.23;94723.97;4946312;28;7169;-64
2023/05/26 11:59:34;;;;;;;;;;;;;;;27.06;44.84;94711.44;4959630;28;7366;-64
2023/05/26 12:02:10;;;;;;;;;;;;;;;27.10;44.26;94711.91;4974243;28;8689;-63
2023/05/26 12:04:43;;;;;;;;;;;;;;;27.08;44.58;94706.13;4986783;28;9223;-64
2023/05/26 12:07:36;;;;;;;;;;;;;;;27.15;44.18;94708.34;5035020;28;7210;-64
2023/05/26 12:10:38;;;;;;;;;;;;;;;27.17;44.01;94711.34;5044526;28;9069;-64
2023/05/26 12:13:39;;;;;;;;;;;;;;;27.19;44.24;94710.81;4967463;28;6988;-64
2023/05/26 12:16:45;;;;;;;;;;;;;;;27.22;43.93;94712.56;4948318;28;7039;-64
2023/05/26 12:19:43;;;;;;;;;;;;;;;27.21;43.96;94706.28;4877058;29;7342;-63
2023/05/26 12:22:10;;;;;;;;;;;;;;;27.21;43.94;94709.06;4821188;29;9361;-63
2023/05/26 12:24:37;;;;;;;;;;;;;;;27.21;43.87;94705.56;4839336;29;7067;-64
2023/05/26 12:27:12;;;;;;;;;;;;;;;27.22;43.70;94707.81;4833309;29;7228;-63
2023/05/26 12:30:22;;;;;;;;;;;;;;;27.27;43.87;94709.03;4821480;29;7223;-64
2023/05/26 12:32:59;;;;;;;;;;;;;;;27.28;43.39;94700.22;4823493;29;7211;-64
2023/05/26 12:35:26;;;;;;;;;;;;;;;27.29;43.61;94696.22;4837815;29;9090;-63
2023/05/26 12:38:46;;;;;;;;;;;;;;;27.33;43.77;94693.16;4833599;29;9022;-63
2023/05/26 12:41:40;;;;;;;;;;;;;;;27.34;43.60;94697.44;4802120;29;9028;-63
2023/05/26 12:44:25;;;;;;;;;;;;;;;27.35;43.73;94696.94;4818499;29;9148;-63
2023/05/26 12:47:23;;;;;;;;;;;;;;;27.35;43.75;94694.16;4818565;29;8939;-63
2023/05/26 12:50:03;;;;;;;;;;;;;;;27.38;44.02;94693.13;4856153;29;8231;-63
2023/05/26 12:52:34;;;;;;;;;;;;;;;27.36;43.65;94692.88;4877008;29;8339;-63
2023/05/26 12:55:01;;;;;;;;;;;;;;;27.33;43.95;94696.66;4865749;29;9438;-64
2023/05/26 12:57:27;;;;;;;;;;;;;;;27.33;43.82;94696.66;4873221;29;7044;-65
2023/05/26 12:59:53;;;;;;;;;;;;;;;27.35;43.52;94691.41;4921613;28;9450;-65
2023/05/26 13:02:22;;;;;;;;;;;;;;;27.38;43.00;94695.88;4924025;28;7467;-65
2023/05/26 13:04:59;;;;;;;;;;;;;;;27.41;43.50;94696.88;4909922;29;7020;-65
2023/05/26 13:07:38;;;;;;;;;;;;;;;27.41;43.08;94699.63;4944982;28;7042;-65
2023/05/26 13:10:43;;;;;;;;;;;;;;;27.46;43.23;94694.06;4934159;29;8921;-65
2023/05/26 13:13:31;;;;;;;;;;;;;;;27.48;43.08;94693.56;4933930;29;7294;-65
2023/05/26 13:15:58;;;;;;;;;;;;;;;27.50;43.11;94694.53;4934698;28;9134;-65
2023/05/26 13:18:31;;;;;;;;;;;;;;;27.53;43.25;94693.47;4963568;28;6971;-65
2023/05/26 13:20:58;;;;;;;;;;;;;;;27.48;43.04;94688.78;4964682;28;7633;-65
2023/05/26 13:23:30;;;;;;;;;;;;;;;27.52;43.23;94696.78;4953684;28;7293;-66
2023/05/26 13:25:57;;;;;;;;;;;;;;;27.51;43.38;94690.50;4983583;28;7005;-65
2023/05/26 13:28:25;;;;;;;;;;;;;;;27.53;43.01;94687.97;5050666;28;7567;-65
2023/05/26 13:31:31;;;;;;;;;;;;;;;27.56;43.09;94686.94;5085696;28;9096;-65
2023/05/26 13:33:57;;;;;;;;;;;;;;;27.56;43.04;94686.94;5087074;28;9176;-66
2023/05/26 13:36:24;;;;;;;;;;;;;;;27.57;43.19;94691.22;5073434;28;7010;-66
2023/05/26 13:39:01;;;;;;;;;;;;;;;27.58;43.20;94687.16;5057569;28;7231;-66
2023/05/26 13:41:35;;;;;;;;;;;;;;;27.59;43.34;94690.69;5072927;28;8240;-66
2023/05/26 13:44:08;;;;;;;;;;;;;;;27.61;43.36;94686.16;5052249;28;8793;-66
2023/05/26 13:46:48;;;;;;;;;;;;;;;27.62;43.20;94690.38;5073629;28;8686;-66
2023/05/26 13:49:22;;;;;;;;;;;;;;;27.63;43.21;94680.84;5056609;28;7042;-66
2023/05/26 13:52:01;;;;;;;;;;;;;;;27.66;42.77;94675.53;5082503;28;7101;-66
2023/05/26 13:54:30;;;;;;;;;;;;;;;27.66;43.36;94679.06;5044185;28;9368;-66
2023/05/26 13:57:09;;;;;;;;;;;;;;;27.70;42.20;94685.06;5047446;28;8277;-66
2023/05/26 13:59:51;;;;;;;;;;;;;;;27.77;41.77;94667.16;5059505;28;8889;-66
2023/05/26 14:02:17;;;;;;;;;;;;;;;27.83;41.38;94671.34;5045958;28;7025;-66